»·PEaware :: UAL302 KIAH-KLAX

UAL302 :: KIAH-KLAX

FLIGHT INFORMATION

Flight Status: Arrived
Operator:
United Airlines
More flights by this operator :: More flights under this callsign
Pilot: Kolin J. (28867)
Aircraft: BOEING 737-800
(B738)
More flights by this aircraft type
Origin: KIAH G Bush Intercontinental/Houst
United States
Destination: KLAX Los Angeles Intl
United States
More flights between these airports :: More routes between these airports
Route: PITZZ4 CRGER JCT ELP WOBUG J184 BXK J4 MESSI ESTWD HLYWD1
File this flight plan on PilotEdge
Remarks:
Altitude:
(Current/Filed)
34,000ft
Speed:
(Current/Filed)
450kts
Departed: 16-May-20 09:19 PM
Arrived: 17-May-20 12:26 AM
Distance/Time
Traveled:
1195nm/3:07
Distance/Time
To Go:
Arrived

Flight Plot

Page will automatically refresh every two minutes.

Flight plan parsing failed; only flown route is shown


Map Options




Map Legend


Flown Route
Filed Route
Departure Airport
Arrival Airport
Navaid (VOR, NDB)
Fix

Horizontal Profiles

Position Reports

Time Latitude Longitude Heading Altitude Ground
Speed
16-May-20 21:07 29.989006 -95.341002 239 102ft 0kts
16-May-20 21:08 29.989006 -95.341002 239 102ft 0kts
16-May-20 21:09 29.989006 -95.341002 239 102ft 0kts
16-May-20 21:10 29.989025 -95.340963 240 102ft 1kts
16-May-20 21:10 29.989143 -95.340541 293 102ft 2kts
16-May-20 21:12 29.988851 -95.340358 1 102ft 0kts
16-May-20 21:13 29.988852 -95.340358 1 102ft 0kts
16-May-20 21:13 29.988852 -95.340358 1 102ft 0kts
16-May-20 21:14 29.991158 -95.339922 28 102ft 15kts
16-May-20 21:16 29.991765 -95.333826 90 102ft 33kts
16-May-20 21:16 29.991805 -95.327058 89 99ft 31kts
16-May-20 21:17 29.993433 -95.326503 270 99ft 23kts
16-May-20 21:18 29.993503 -95.355030 271 803ft 168kts
16-May-20 21:19 29.990057 -95.393120 261 2932ft 176kts
16-May-20 21:20 29.983695 -95.440315 262 4112ft 253kts
16-May-20 21:21 29.976498 -95.500356 263 5821ft 254kts
16-May-20 21:22 29.969262 -95.562389 268 7838ft 254kts
16-May-20 21:23 29.977511 -95.638014 283 10349ft 255kts
16-May-20 21:24 29.995323 -95.718748 284 13091ft 262kts
16-May-20 21:25 30.013385 -95.800859 284 15338ft 290kts
16-May-20 21:26 30.035012 -95.899494 283 17427ft 322kts
16-May-20 21:27 30.058280 -96.006019 282 19487ft 345kts
16-May-20 21:28 30.079338 -96.117988 278 21516ft 359kts
16-May-20 21:29 30.097450 -96.236102 278 23564ft 368kts
16-May-20 21:30 30.115526 -96.353748 277 25546ft 372kts
16-May-20 21:31 30.133633 -96.471973 277 27521ft 370kts
16-May-20 21:32 30.152051 -96.592992 276 29555ft 363kts
16-May-20 21:33 30.168917 -96.704645 275 31497ft 350kts
16-May-20 21:34 30.186104 -96.819430 275 31949ft 379kts
16-May-20 21:35 30.203268 -96.933952 275 32599ft 396kts
16-May-20 21:36 30.219848 -97.045520 275 33825ft 394kts
16-May-20 21:37 30.236594 -97.159783 275 33943ft 414kts
16-May-20 21:38 30.253606 -97.273678 276 33943ft 427kts
16-May-20 21:39 30.270407 -97.387335 276 33945ft 424kts
16-May-20 21:40 30.287017 -97.500384 276 33947ft 425kts
16-May-20 21:41 30.302620 -97.606684 276 33940ft 424kts
16-May-20 21:42 30.316291 -97.700799 275 33945ft 424kts
16-May-20 21:43 30.334672 -97.797078 279 33950ft 426kts
16-May-20 21:44 30.357071 -97.902353 279 33961ft 427kts
16-May-20 21:45 30.380858 -98.015076 279 33965ft 427kts
16-May-20 21:46 30.405710 -98.133370 279 33972ft 427kts
16-May-20 21:47 30.430748 -98.253211 279 33977ft 426kts
16-May-20 21:48 30.453609 -98.380526 273 33988ft 423kts
16-May-20 21:49 30.467717 -98.516967 273 33992ft 424kts
16-May-20 21:50 30.481581 -98.649183 273 34001ft 423kts
16-May-20 21:51 30.494154 -98.769285 273 34013ft 423kts
16-May-20 21:52 30.507344 -98.897495 273 34019ft 423kts
16-May-20 21:53 30.520768 -99.028776 276 34015ft 425kts
16-May-20 21:54 30.534400 -99.163361 277 34013ft 435kts
16-May-20 21:55 30.548376 -99.303002 277 34003ft 433kts
16-May-20 21:56 30.562428 -99.444855 277 33996ft 433kts
16-May-20 21:57 30.576331 -99.586808 277 33991ft 433kts
16-May-20 21:58 30.589619 -99.724373 276 34000ft 434kts
16-May-20 21:59 30.608225 -99.864719 283 34002ft 432kts
16-May-20 22:00 30.639075 -100.008033 284 33999ft 433kts
16-May-20 22:01 30.671682 -100.160313 284 34017ft 433kts
16-May-20 22:02 30.704012 -100.312275 284 34056ft 433kts
16-May-20 22:03 30.736183 -100.464433 284 34062ft 433kts
16-May-20 22:04 30.768132 -100.616490 284 34061ft 433kts
16-May-20 22:05 30.799335 -100.765978 283 34066ft 433kts
16-May-20 22:06 30.830839 -100.917672 284 34054ft 434kts
16-May-20 22:07 30.861356 -101.065562 286 34044ft 440kts
16-May-20 22:08 30.892998 -101.219895 286 34041ft 439kts
16-May-20 22:09 30.924534 -101.374708 286 34042ft 440kts
16-May-20 22:10 30.956138 -101.530827 286 34040ft 441kts
16-May-20 22:11 30.987682 -101.687704 285 34041ft 441kts
16-May-20 22:12 31.018993 -101.844561 285 34043ft 442kts
16-May-20 22:13 31.049709 -101.999343 287 34043ft 446kts
16-May-20 22:14 31.081028 -102.158158 287 34026ft 451kts
16-May-20 22:15 31.111697 -102.314764 287 34023ft 451kts
16-May-20 22:16 31.143802 -102.479919 287 34020ft 451kts
16-May-20 22:17 31.176503 -102.649423 287 34020ft 451kts
16-May-20 22:18 31.207016 -102.808719 286 34023ft 452kts
16-May-20 22:19 31.237671 -102.969824 286 34020ft 451kts
16-May-20 22:20 31.267565 -103.128058 286 34011ft 450kts
16-May-20 22:21 31.297216 -103.286121 286 34010ft 449kts
16-May-20 22:22 31.326545 -103.443490 286 34010ft 450kts
16-May-20 22:23 31.355936 -103.602415 286 34009ft 450kts
16-May-20 22:24 31.383092 -103.750287 285 34010ft 450kts
16-May-20 22:25 31.409436 -103.894639 285 34009ft 450kts
16-May-20 22:26 31.435455 -104.038155 285 34009ft 450kts
16-May-20 22:27 31.461194 -104.181073 285 34008ft 450kts
16-May-20 22:28 31.486867 -104.324589 285 34007ft 450kts
16-May-20 22:29 31.512347 -104.467923 285 34007ft 450kts
16-May-20 22:30 31.537636 -104.611054 285 34009ft 450kts
16-May-20 22:31 31.562767 -104.754507 285 34008ft 450kts
16-May-20 22:32 31.587786 -104.898373 285 34007ft 450kts
16-May-20 22:33 31.612799 -105.042966 284 34009ft 456kts
16-May-20 22:34 31.637819 -105.188705 284 34002ft 458kts
16-May-20 22:35 31.662801 -105.335376 284 33986ft 458kts
16-May-20 22:36 31.687537 -105.481642 284 33980ft 458kts
16-May-20 22:37 31.712109 -105.627980 284 33980ft 458kts
16-May-20 22:38 31.736540 -105.774578 283 33980ft 458kts
16-May-20 22:39 31.760793 -105.921168 283 33980ft 458kts
16-May-20 22:40 31.784906 -106.067967 283 33980ft 458kts
16-May-20 22:41 31.808723 -106.214075 283 33980ft 458kts
16-May-20 22:42 31.839170 -106.356945 291 33981ft 455kts
16-May-20 22:43 31.881854 -106.495767 292 33980ft 455kts
16-May-20 22:44 31.924543 -106.634992 292 33986ft 454kts
16-May-20 22:45 31.966027 -106.770896 292 34011ft 455kts
16-May-20 22:46 32.008506 -106.910687 292 34032ft 449kts
16-May-20 22:47 32.049955 -107.047683 292 34032ft 442kts
16-May-20 22:48 32.091075 -107.184168 292 34032ft 443kts
16-May-20 22:49 32.132039 -107.320763 292 34038ft 443kts
16-May-20 22:50 32.172941 -107.457758 292 34038ft 443kts
16-May-20 22:51 32.213612 -107.594593 292 34037ft 443kts
16-May-20 22:52 32.254000 -107.731133 291 34038ft 443kts
16-May-20 22:53 32.294503 -107.868641 291 34038ft 443kts
16-May-20 22:55 32.334655 -108.005574 291 34041ft 443kts
16-May-20 22:56 32.374830 -108.143207 291 34085ft 443kts
16-May-20 22:57 32.414770 -108.280659 291 34109ft 443kts
16-May-20 22:58 32.454547 -108.418183 291 34109ft 442kts
16-May-20 22:59 32.494243 -108.556061 291 34108ft 442kts
16-May-20 23:00 32.533071 -108.691575 291 34110ft 442kts
16-May-20 23:01 32.572083 -108.828360 291 34058ft 443kts
16-May-20 23:02 32.607690 -108.965834 287 33980ft 445kts
16-May-20 23:03 32.639355 -109.103804 287 33971ft 443kts
16-May-20 23:04 32.672209 -109.243163 287 33971ft 445kts
16-May-20 23:05 32.704950 -109.382895 287 33970ft 444kts
16-May-20 23:06 32.737459 -109.522385 287 33970ft 444kts
16-May-20 23:07 32.768065 -109.654409 286 33970ft 444kts
16-May-20 23:08 32.801858 -109.801051 286 33971ft 444kts
16-May-20 23:09 32.834268 -109.942432 286 33971ft 444kts
16-May-20 23:10 32.866389 -110.083335 286 33971ft 444kts
16-May-20 23:11 32.898406 -110.224573 286 33970ft 444kts
16-May-20 23:12 32.930238 -110.365795 286 33970ft 444kts
16-May-20 23:12 32.956704 -110.483822 286 33960ft 444kts
16-May-20 23:14 32.993417 -110.648491 286 33933ft 442kts
16-May-20 23:14 33.017975 -110.759348 285 33934ft 440kts
16-May-20 23:15 33.049287 -110.901322 285 33933ft 439kts
16-May-20 23:16 33.079858 -111.040731 284 33919ft 436kts
16-May-20 23:17 33.108519 -111.172178 284 33902ft 433kts
16-May-20 23:18 33.135263 -111.295556 284 33898ft 431kts
16-May-20 23:19 33.162446 -111.426630 284 33897ft 432kts
16-May-20 23:20 33.190439 -111.557150 284 33896ft 432kts
16-May-20 23:21 33.215825 -111.676251 283 33901ft 432kts
16-May-20 23:22 33.239521 -111.788032 283 33902ft 432kts
16-May-20 23:23 33.264280 -111.905298 283 33892ft 432kts
16-May-20 23:24 33.289868 -112.027105 283 33867ft 432kts
16-May-20 23:25 33.318275 -112.163085 283 33852ft 432kts
16-May-20 23:26 33.347832 -112.305416 283 33851ft 432kts
16-May-20 23:27 33.379158 -112.457228 283 33864ft 432kts
16-May-20 23:28 33.411144 -112.613278 283 33877ft 432kts
16-May-20 23:29 33.442348 -112.766678 283 33882ft 432kts
16-May-20 23:30 33.481413 -112.903278 292 33882ft 434kts
16-May-20 23:31 33.529334 -113.036215 291 33880ft 438kts
16-May-20 23:32 33.577308 -113.170719 291 33880ft 438kts
16-May-20 23:33 33.625049 -113.305110 291 33879ft 439kts
16-May-20 23:34 33.672659 -113.439684 291 33879ft 439kts
16-May-20 23:35 33.720123 -113.574406 291 33871ft 439kts
16-May-20 23:36 33.767282 -113.708868 291 33850ft 439kts
16-May-20 23:37 33.814266 -113.844589 290 33839ft 438kts
16-May-20 23:38 33.860006 -113.980011 290 33841ft 439kts
16-May-20 23:39 33.904891 -114.116113 284 33839ft 437kts
16-May-20 23:40 33.930023 -114.259446 280 33835ft 437kts
16-May-20 23:41 33.954265 -114.402632 280 33835ft 437kts
16-May-20 23:42 33.978284 -114.545495 280 33835ft 437kts
16-May-20 23:43 34.002142 -114.688533 280 33837ft 437kts
16-May-20 23:44 34.025859 -114.831811 280 33836ft 437kts
16-May-20 23:45 34.049437 -114.975233 280 33836ft 437kts
16-May-20 23:46 34.072432 -115.118141 279 33835ft 433kts
16-May-20 23:47 34.095463 -115.260074 279 33855ft 431kts
16-May-20 23:48 34.160537 -115.722868 263 33958ft 429kts
16-May-20 23:49 34.146682 -115.868102 262 32454ft 434kts
16-May-20 23:50 34.133383 -116.004736 262 32016ft 430kts
16-May-20 23:51 34.119044 -116.150406 262 30904ft 436kts
16-May-20 23:52 34.105749 -116.284746 261 29952ft 428kts
16-May-20 23:53 34.091554 -116.418158 261 28438ft 433kts
16-May-20 23:54 34.076773 -116.555962 261 25845ft 412kts
16-May-20 23:55 34.064677 -116.679667 262 23500ft 439kts
16-May-20 23:56 34.052701 -116.809233 262 20908ft 413kts
16-May-20 23:57 34.039343 -116.936836 259 18223ft 394kts
16-May-20 23:58 34.025654 -117.039356 260 17025ft 357kts
16-May-20 23:59 34.014274 -117.135901 261 15792ft 368kts
17-May-20 00:00 34.003589 -117.225917 261 15033ft 362kts
17-May-20 00:01 33.993680 -117.308238 261 14099ft 357kts
17-May-20 00:02 33.984754 -117.384152 261 13509ft 352kts
17-May-20 00:03 33.975355 -117.464127 261 12172ft 336kts
17-May-20 00:04 33.971403 -117.541436 268 11465ft 326kts
17-May-20 00:05 33.970219 -117.623009 268 10633ft 322kts
17-May-20 00:06 33.968927 -117.697507 268 10034ft 315kts
17-May-20 00:07 33.967646 -117.769741 267 9904ft 311kts
17-May-20 00:08 33.966377 -117.838766 267 8361ft 301kts
17-May-20 00:09 33.965257 -117.897861 267 7269ft 284kts
17-May-20 00:10 33.964172 -117.953478 267 6182ft 272kts
17-May-20 00:11 33.963181 -118.003229 267 5176ft 264kts
17-May-20 00:12 33.962293 -118.047105 267 4318ft 252kts
17-May-20 00:13 33.961459 -118.087395 267 3663ft 232kts
17-May-20 00:14 33.960708 -118.121170 268 3591ft 193kts
17-May-20 00:15 33.960072 -118.150907 269 3598ft 183kts
17-May-20 00:16 33.958563 -118.180592 263 3320ft 175kts
17-May-20 00:17 33.955590 -118.206297 262 2777ft 149kts
17-May-20 00:18 33.952995 -118.230439 262 2296ft 149kts
17-May-20 00:19 33.950402 -118.255079 261 1928ft 150kts
17-May-20 00:20 33.947736 -118.280388 261 1862ft 156kts
17-May-20 00:21 33.944774 -118.308178 262 1536ft 159kts
17-May-20 00:22 33.941971 -118.336908 262 1034ft 154kts
17-May-20 00:23 33.939043 -118.366335 261 416ft 154kts
17-May-20 00:24 33.936141 -118.394523 265 111ft 53kts
17-May-20 00:25 33.936087 -118.395390 265 112ft 0kts
17-May-20 00:26 33.936139 -118.397953 281 115ft 23kts
17-May-20 00:27 33.936541 -118.401484 262 122ft 20kts
17-May-20 00:28 33.938334 -118.403814 67 123ft 19kts
17-May-20 00:29 33.939450 -118.401638 88 122ft 23kts
17-May-20 00:30 33.941294 -118.400800 354 120ft 15kts
17-May-20 00:31 33.941652 -118.400239 82 119ft 0kts
17-May-20 00:32 33.941653 -118.400237 82 119ft 0kts

Navigation Log

Ident Type
Flight plan parsing failed, navigation log unavailable